createdAt,value
2022-08-30T00:01:22.692Z,98.70
2022-08-30T00:03:55.400Z,98.70
2022-08-30T00:06:26.955Z,99.00
2022-08-30T00:08:58.475Z,99.00
2022-08-30T00:11:30.357Z,98.70
2022-08-30T00:14:04.514Z,98.70
2022-08-30T00:16:35.334Z,98.90
2022-08-30T00:19:06.708Z,99.10
2022-08-30T00:21:39.638Z,99.10
2022-08-30T00:24:10.783Z,99.00
2022-08-30T00:26:41.570Z,99.20
2022-08-30T00:29:15.295Z,99.00
2022-08-30T00:31:46.101Z,98.80
2022-08-30T00:34:17.303Z,99.00
2022-08-30T00:36:48.160Z,99.10
2022-08-30T00:39:19.186Z,99.20
2022-08-30T00:41:50.129Z,99.10
2022-08-30T00:44:24.314Z,99.40
2022-08-30T00:46:55.131Z,99.20
2022-08-30T00:49:26.476Z,99.20
2022-08-30T00:51:57.416Z,99.30
2022-08-30T00:54:28.760Z,99.30
2022-08-30T00:56:59.925Z,99.30
2022-08-30T00:59:34.239Z,99.20
2022-08-30T01:02:06.017Z,99.40
2022-08-30T01:04:38.011Z,99.10
2022-08-30T01:07:09.124Z,99.60
2022-08-30T01:09:40.348Z,99.40
2022-08-30T01:12:11.389Z,99.20
2022-08-30T01:14:45.083Z,99.30
2022-08-30T01:17:16.089Z,99.20
2022-08-30T01:19:50.285Z,99.40
2022-08-30T01:22:24.462Z,99.30
2022-08-30T01:24:59.152Z,99.50
2022-08-30T01:27:31.336Z,99.50
2022-08-30T01:30:02.472Z,99.80
2022-08-30T01:32:33.373Z,99.40
2022-08-30T01:35:04.377Z,99.50
2022-08-30T01:37:36.474Z,99.60
2022-08-30T01:40:11.045Z,99.70
2022-08-30T01:42:42.095Z,99.60
2022-08-30T01:45:14.150Z,99.70
2022-08-30T01:47:44.949Z,99.70
2022-08-30T01:50:16.893Z,99.50
2022-08-30T01:52:47.723Z,99.80
2022-08-30T01:55:21.441Z,99.70
2022-08-30T01:57:52.746Z,99.70
2022-08-30T02:00:24.142Z,99.60
2022-08-30T02:02:55.230Z,99.70
2022-08-30T02:05:26.466Z,99.90
2022-08-30T02:07:57.321Z,99.90
2022-08-30T02:10:31.137Z,99.80
2022-08-30T02:13:02.342Z,99.60
2022-08-30T02:15:41.726Z,99.80
2022-08-30T02:18:13.622Z,99.80
2022-08-30T02:20:44.717Z,99.90
2022-08-30T02:23:15.628Z,99.90
2022-08-30T02:25:49.503Z,99.80
2022-08-30T02:28:20.757Z,99.90
2022-08-30T02:30:52.330Z,99.90
2022-08-30T02:33:23.311Z,99.90
2022-08-30T02:35:54.800Z,99.90
2022-08-30T02:38:26.919Z,99.90
2022-08-30T02:41:00.618Z,99.90
2022-08-30T02:43:31.592Z,99.90
2022-08-30T02:46:03.200Z,99.90
2022-08-30T02:48:34.333Z,99.90
2022-08-30T02:51:09.546Z,99.90
2022-08-30T02:53:42.237Z,99.90
2022-08-30T02:56:16.731Z,99.90
2022-08-30T02:58:48.408Z,99.90
2022-08-30T03:01:19.733Z,99.90
2022-08-30T03:03:50.821Z,99.90
2022-08-30T03:06:22.161Z,99.90
2022-08-30T03:08:52.989Z,99.90
2022-08-30T03:11:26.940Z,99.90
2022-08-30T03:13:57.912Z,99.90
2022-08-30T03:16:29.250Z,99.90
2022-08-30T03:19:00.131Z,99.90
2022-08-30T03:21:31.175Z,99.90
2022-08-30T03:24:02.132Z,99.90
2022-08-30T03:26:35.985Z,99.90
2022-08-30T03:29:06.891Z,99.90
2022-08-30T03:31:52.479Z,99.90
2022-08-30T03:34:24.954Z,99.90
2022-08-30T03:36:57.116Z,99.90
2022-08-30T03:39:27.964Z,99.90
2022-08-30T03:42:01.669Z,99.90
2022-08-30T03:44:33.966Z,99.90
2022-08-30T03:47:05.200Z,99.90
2022-08-30T03:49:36.053Z,99.90
2022-08-30T03:52:07.522Z,99.90
2022-08-30T03:54:38.811Z,99.90
2022-08-30T03:57:17.642Z,99.90
2022-08-30T03:59:51.252Z,99.90
2022-08-30T04:02:22.965Z,99.90
2022-08-30T04:04:53.898Z,99.90
2022-08-30T04:07:24.985Z,99.90
2022-08-30T04:09:55.925Z,99.90
2022-08-30T04:12:29.992Z,99.90
2022-08-30T04:15:00.947Z,99.90
2022-08-30T04:17:33.351Z,99.90
2022-08-30T04:20:04.218Z,99.90
2022-08-30T04:22:35.441Z,99.90
2022-08-30T04:25:06.527Z,99.90
2022-08-30T04:27:40.340Z,99.90
2022-08-30T04:30:12.628Z,99.90
2022-08-30T04:32:43.753Z,99.90
2022-08-30T04:35:15.132Z,99.90
2022-08-30T04:37:46.129Z,99.90
2022-08-30T04:40:17.438Z,99.90
2022-08-30T04:42:54.272Z,99.90
2022-08-30T04:45:25.471Z,99.90
2022-08-30T04:47:57.301Z,99.90
2022-08-30T04:50:28.679Z,99.90
2022-08-30T04:53:00.194Z,99.90
2022-08-30T04:55:30.994Z,99.90
2022-08-30T04:58:06.095Z,99.90
2022-08-30T05:00:37.590Z,99.90
2022-08-30T05:03:08.905Z,99.90
2022-08-30T05:05:42.775Z,99.90
2022-08-30T05:08:15.466Z,99.90
2022-08-30T05:10:47.253Z,99.90
2022-08-30T05:13:30.347Z,99.90
2022-08-30T05:16:08.072Z,99.90
2022-08-30T05:18:39.956Z,99.90
2022-08-30T05:21:11.956Z,99.90
2022-08-30T05:23:43.450Z,99.90
2022-08-30T05:26:15.495Z,99.90
2022-08-30T05:28:49.786Z,99.90
2022-08-30T05:31:21.875Z,99.90
2022-08-30T05:33:54.335Z,99.90
2022-08-30T05:36:26.609Z,99.90
2022-08-30T05:38:58.040Z,99.90
2022-08-30T05:41:29.352Z,99.90
2022-08-30T05:44:04.370Z,99.90
2022-08-30T05:46:37.432Z,99.90
2022-08-30T05:49:09.976Z,99.90
2022-08-30T05:51:43.314Z,99.90
2022-08-30T05:54:15.525Z,99.90
2022-08-30T05:56:47.677Z,99.90
2022-08-30T05:59:21.839Z,99.90
2022-08-30T06:01:52.753Z,99.90
2022-08-30T06:04:23.763Z,99.90
2022-08-30T06:06:54.814Z,99.90
2022-08-30T06:09:25.940Z,99.90
2022-08-30T06:11:57.806Z,99.90
2022-08-30T06:14:31.597Z,99.90
2022-08-30T06:17:02.557Z,99.90
2022-08-30T06:19:33.627Z,99.90
2022-08-30T06:22:04.643Z,99.90
2022-08-30T06:24:56.553Z,99.90
2022-08-30T06:27:27.456Z,99.90
2022-08-30T06:30:01.130Z,99.90
2022-08-30T06:32:32.130Z,99.90
2022-08-30T06:35:03.231Z,99.90
2022-08-30T06:37:34.081Z,99.90
2022-08-30T06:40:06.120Z,99.90
2022-08-30T06:42:37.093Z,99.90
2022-08-30T06:45:11.391Z,99.90
2022-08-30T06:47:44.994Z,99.90
2022-08-30T06:50:17.030Z,99.90
2022-08-30T06:52:48.818Z,99.90
2022-08-30T06:55:20.679Z,99.90
2022-08-30T06:57:51.534Z,99.90
2022-08-30T07:00:25.403Z,99.90
2022-08-30T07:02:56.327Z,99.90
2022-08-30T07:05:27.511Z,99.90
2022-08-30T07:07:58.442Z,99.90
2022-08-30T07:10:29.542Z,99.90
2022-08-30T07:13:00.417Z,99.90
2022-08-30T07:15:34.122Z,99.90
2022-08-30T07:18:27.605Z,99.90
2022-08-30T07:20:58.773Z,99.70
2022-08-30T07:23:29.768Z,99.90
2022-08-30T07:26:00.928Z,99.90
2022-08-30T07:28:31.817Z,99.10
2022-08-30T07:31:05.864Z,99.90
2022-08-30T07:33:36.715Z,99.60
2022-08-30T07:36:08.462Z,99.90
2022-08-30T07:38:39.502Z,98.60
2022-08-30T07:41:10.911Z,98.90
2022-08-30T07:43:41.834Z,98.40
2022-08-30T07:46:15.651Z,98.30
2022-08-30T07:48:46.969Z,98.30
2022-08-30T07:51:19.789Z,97.70
2022-08-30T07:53:50.817Z,97.50
2022-08-30T07:56:21.953Z,97.70
2022-08-30T07:58:52.952Z,98.30
2022-08-30T08:01:27.048Z,98.00
2022-08-30T08:03:58.018Z,97.70
2022-08-30T08:06:34.675Z,97.60
2022-08-30T08:09:06.582Z,97.40
2022-08-30T08:11:39.973Z,97.20
2022-08-30T08:14:11.376Z,97.20
2022-08-30T08:16:46.827Z,96.90
2022-08-30T08:19:18.175Z,97.00
2022-08-30T08:21:59.357Z,97.00
2022-08-30T08:24:40.563Z,96.70
2022-08-30T08:27:11.623Z,96.50
2022-08-30T08:29:42.535Z,96.20
2022-08-30T08:32:16.252Z,96.00
2022-08-30T08:34:47.482Z,96.40
2022-08-30T08:37:20.842Z,96.70
2022-08-30T08:39:55.968Z,96.50
2022-08-30T08:42:30.532Z,96.40
2022-08-30T08:45:07.443Z,96.50
2022-08-30T08:47:48.205Z,96.30
2022-08-30T08:50:23.402Z,96.10
2022-08-30T08:53:10.822Z,96.40
2022-08-30T08:55:50.047Z,96.10
2022-08-30T08:58:25.108Z,96.10
2022-08-30T09:00:56.654Z,95.60
2022-08-30T09:03:31.358Z,95.70
2022-08-30T09:06:02.191Z,95.70
2022-08-30T09:08:35.981Z,95.40
2022-08-30T09:11:11.464Z,95.60
2022-08-30T09:13:42.579Z,95.30
2022-08-30T09:16:34.063Z,92.50
2022-08-30T09:19:08.929Z,94.80
2022-08-30T09:21:39.904Z,95.60
2022-08-30T09:24:11.972Z,95.10
2022-08-30T09:26:42.825Z,95.60
2022-08-30T09:29:20.205Z,94.70
2022-08-30T09:32:10.146Z,95.10
2022-08-30T09:34:48.871Z,94.90
2022-08-30T09:37:27.074Z,94.90
2022-08-30T09:39:58.284Z,95.10
2022-08-30T09:42:31.316Z,94.90
2022-08-30T09:45:13.311Z,95.00
2022-08-30T09:47:46.246Z,95.20
2022-08-30T09:50:24.265Z,95.20
2022-08-30T09:52:59.500Z,94.90
2022-08-30T09:55:41.135Z,94.10
2022-08-30T09:58:17.847Z,93.90
2022-08-30T10:00:53.059Z,94.40
2022-08-30T10:03:36.248Z,94.10
2022-08-30T10:06:17.944Z,94.00
2022-08-30T10:08:58.648Z,94.20
2022-08-30T10:11:31.462Z,93.90
2022-08-30T10:14:18.620Z,94.10
2022-08-30T10:16:55.765Z,94.50
2022-08-30T10:19:32.000Z,94.30
2022-08-30T10:22:07.748Z,94.50
2022-08-30T10:24:40.893Z,94.00
2022-08-30T10:27:17.809Z,94.00
2022-08-30T10:29:50.294Z,93.50
2022-08-30T10:32:45.815Z,93.50
2022-08-30T10:35:19.778Z,93.10
2022-08-30T10:37:57.242Z,92.80
2022-08-30T10:40:44.256Z,93.00
2022-08-30T10:43:19.966Z,92.40
2022-08-30T10:45:53.655Z,92.80
2022-08-30T10:48:27.950Z,92.30
2022-08-30T10:51:01.321Z,92.20
2022-08-30T10:53:36.972Z,92.20
2022-08-30T10:56:09.999Z,92.60
2022-08-30T10:58:44.978Z,91.90
2022-08-30T11:01:28.308Z,91.00
2022-08-30T11:04:14.207Z,91.00
2022-08-30T11:06:49.293Z,90.60
2022-08-30T11:09:36.030Z,90.30
2022-08-30T11:12:20.366Z,91.40
2022-08-30T11:14:51.709Z,90.70
2022-08-30T11:17:27.217Z,90.00
2022-08-30T11:19:59.282Z,89.50
2022-08-30T11:22:34.417Z,89.60
2022-08-30T11:25:17.116Z,90.30
2022-08-30T11:27:51.637Z,89.80
2022-08-30T11:30:40.558Z,87.30
2022-08-30T11:33:30.721Z,87.20
2022-08-30T11:36:01.796Z,86.80
2022-08-30T11:38:51.888Z,87.60
2022-08-30T11:41:39.546Z,86.40
2022-08-30T11:44:31.498Z,86.50
2022-08-30T11:47:03.414Z,86.20
2022-08-30T11:50:00.170Z,87.10
2022-08-30T11:52:41.791Z,87.70
2022-08-30T11:55:21.078Z,87.10
2022-08-30T11:57:59.622Z,81.50
2022-08-30T12:00:34.316Z,86.50
2022-08-30T12:03:07.286Z,81.90
2022-08-30T12:05:53.187Z,82.20
2022-08-30T12:08:39.170Z,86.20
2022-08-30T12:11:30.596Z,83.90
2022-08-30T12:14:09.001Z,81.90
2022-08-30T12:17:04.052Z,84.30
2022-08-30T12:19:33.804Z,85.80
2022-08-30T12:22:07.807Z,87.90
2022-08-30T12:24:40.773Z,88.00
2022-08-30T12:27:24.479Z,84.40
2022-08-30T12:29:59.846Z,85.50
2022-08-30T12:32:31.262Z,85.30
2022-08-30T12:35:04.116Z,85.70
2022-08-30T12:37:36.849Z,85.40
2022-08-30T12:40:10.315Z,84.30
2022-08-30T12:42:43.071Z,82.80
2022-08-30T12:45:18.779Z,84.70
2022-08-30T12:47:52.116Z,81.10
2022-08-30T12:50:24.937Z,84.80
2022-08-30T12:52:59.549Z,80.90
2022-08-30T12:55:33.007Z,80.80
2022-08-30T12:58:07.544Z,83.80
2022-08-30T13:00:42.771Z,83.50
2022-08-30T13:03:30.847Z,83.40
2022-08-30T13:06:02.778Z,84.60
2022-08-30T13:08:36.940Z,82.40
2022-08-30T13:11:09.651Z,84.30
2022-08-30T13:13:44.285Z,81.50
2022-08-30T13:16:29.476Z,81.10
2022-08-30T13:19:15.353Z,82.50
2022-08-30T13:21:52.928Z,77.50
2022-08-30T13:24:25.716Z,81.70
2022-08-30T13:26:58.581Z,79.80
2022-08-30T13:29:32.141Z,81.90
2022-08-30T13:32:06.046Z,78.60
2022-08-30T13:34:37.023Z,81.00
2022-08-30T13:37:47.247Z,78.90
2022-08-30T13:40:04.395Z,82.70
2022-08-30T13:42:35.905Z,76.90
2022-08-30T13:45:40.821Z,79.90
2022-08-30T13:48:01.188Z,79.50
2022-08-30T13:50:32.068Z,76.70
2022-08-30T13:53:03.287Z,74.80
2022-08-30T13:55:34.392Z,74.80
2022-08-30T13:58:06.293Z,81.90
2022-08-30T14:00:38.122Z,79.20
2022-08-30T14:03:12.461Z,80.40
2022-08-30T14:05:49.224Z,81.00
2022-08-30T14:11:16.299Z,81.30
2022-08-30T14:16:43.340Z,82.00
2022-08-30T14:19:18.232Z,80.10
2022-08-30T14:21:49.491Z,81.70
2022-08-30T14:24:21.526Z,81.70
2022-08-30T14:26:54.648Z,78.70
2022-08-30T14:29:29.962Z,77.30
2022-08-30T14:32:01.073Z,79.80
2022-08-30T14:34:35.507Z,81.10
2022-08-30T14:37:26.743Z,73.90
2022-08-30T14:39:57.894Z,79.20
2022-08-30T14:42:28.698Z,80.10
2022-08-30T14:44:59.829Z,79.50
2022-08-30T14:47:30.966Z,78.50
2022-08-30T14:50:04.798Z,79.90
2022-08-30T14:52:35.643Z,77.90
2022-08-30T14:55:09.608Z,77.40
2022-08-30T14:57:41.810Z,73.80
2022-08-30T15:00:16.090Z,80.00
2022-08-30T15:02:47.985Z,78.20
2022-08-30T15:05:22.793Z,78.50
2022-08-30T15:07:55.022Z,77.50
2022-08-30T15:10:26.384Z,78.90
2022-08-30T15:12:57.263Z,79.60
2022-08-30T15:15:28.591Z,76.60
2022-08-30T15:17:59.562Z,80.00
2022-08-30T15:20:33.540Z,76.50
2022-08-30T15:23:05.012Z,80.10
2022-08-30T15:25:36.193Z,78.80
2022-08-30T15:28:10.724Z,79.40
2022-08-30T15:30:42.762Z,79.20
2022-08-30T15:33:14.387Z,78.70
2022-08-30T15:35:49.587Z,77.20
2022-08-30T15:38:21.931Z,79.50
2022-08-30T15:40:54.074Z,80.10
2022-08-30T15:43:26.270Z,78.70
2022-08-30T15:45:58.212Z,79.30
2022-08-30T15:48:29.861Z,78.50
2022-08-30T15:51:03.598Z,80.00
2022-08-30T15:53:37.307Z,80.50
2022-08-30T15:56:08.655Z,80.60
2022-08-30T15:58:41.073Z,79.60
2022-08-30T16:01:12.766Z,80.10
2022-08-30T16:03:44.980Z,78.40
2022-08-30T16:06:20.336Z,79.80
2022-08-30T16:08:51.545Z,80.20
2022-08-30T16:11:25.224Z,78.80
2022-08-30T16:13:56.551Z,79.20
2022-08-30T16:16:27.928Z,80.00
2022-08-30T16:18:58.802Z,80.30
2022-08-30T16:21:33.807Z,80.90
2022-08-30T16:24:05.427Z,80.90
2022-08-30T16:26:37.251Z,81.30
2022-08-30T16:29:08.985Z,81.00
2022-08-30T16:31:40.265Z,82.00
2022-08-30T16:34:11.018Z,82.30
2022-08-30T16:36:48.908Z,82.40
2022-08-30T16:39:20.389Z,82.70
2022-08-30T16:41:51.654Z,83.10
2022-08-30T16:44:22.566Z,83.20
2022-08-30T16:47:00.990Z,83.40
2022-08-30T16:49:32.131Z,83.30
2022-08-30T16:52:06.981Z,83.70
2022-08-30T16:54:37.973Z,83.50
2022-08-30T16:57:09.238Z,83.70
2022-08-30T16:59:40.610Z,84.10
2022-08-30T17:02:12.212Z,84.20
2022-08-30T17:04:43.244Z,84.00
2022-08-30T17:07:22.325Z,85.10
2022-08-30T17:09:53.521Z,83.90
2022-08-30T17:12:25.114Z,85.00
2022-08-30T17:14:57.070Z,85.10
2022-08-30T17:17:28.583Z,85.10
2022-08-30T17:20:00.505Z,85.10
2022-08-30T17:22:34.268Z,85.90
2022-08-30T17:25:05.125Z,85.40
2022-08-30T17:27:37.668Z,86.10
2022-08-30T17:30:09.807Z,86.60
2022-08-30T17:32:41.397Z,88.10
2022-08-30T17:35:12.468Z,86.60
2022-08-30T17:37:46.464Z,86.90
2022-08-30T17:40:20.310Z,87.70
2022-08-30T17:42:51.515Z,88.60
2022-08-30T17:45:22.317Z,88.90
2022-08-30T17:47:53.677Z,89.40
2022-08-30T17:50:24.710Z,88.50
2022-08-30T17:53:01.874Z,90.20
2022-08-30T17:55:32.739Z,90.50
2022-08-30T17:58:03.987Z,90.60
2022-08-30T18:00:34.853Z,91.00
2022-08-30T18:03:06.457Z,90.90
2022-08-30T18:05:38.487Z,91.20
2022-08-30T18:08:16.479Z,91.40
2022-08-30T18:10:47.517Z,92.20
2022-08-30T18:13:20.502Z,92.20
2022-08-30T18:15:51.318Z,92.50
2022-08-30T18:18:22.986Z,93.10
2022-08-30T18:20:54.272Z,92.90
2022-08-30T18:23:28.533Z,92.20
2022-08-30T18:26:01.063Z,91.30
2022-08-30T18:28:33.609Z,92.60
2022-08-30T18:31:04.662Z,92.40
2022-08-30T18:33:40.851Z,92.90
2022-08-30T18:36:14.630Z,93.00
2022-08-30T18:38:49.732Z,92.40
2022-08-30T18:41:20.843Z,92.20
2022-08-30T18:44:05.867Z,93.00
2022-08-30T18:46:55.749Z,93.00
2022-08-30T18:49:35.193Z,92.90
2022-08-30T18:52:07.744Z,92.80
2022-08-30T18:54:47.324Z,91.90
2022-08-30T18:57:23.021Z,93.50
2022-08-30T18:59:54.264Z,92.80
2022-08-30T19:02:27.697Z,92.70
2022-08-30T19:04:59.462Z,93.00
2022-08-30T19:10:26.089Z,92.60
2022-08-30T19:12:59.965Z,93.20
2022-08-30T19:15:31.884Z,93.20
2022-08-30T19:18:16.688Z,94.30
2022-08-30T19:20:50.962Z,94.30
2022-08-30T19:23:23.763Z,94.20
2022-08-30T19:25:58.675Z,94.20
2022-08-30T19:28:30.744Z,93.60
2022-08-30T19:31:02.158Z,93.70
2022-08-30T19:33:33.940Z,93.90
2022-08-30T19:36:06.042Z,94.90
2022-08-30T19:38:37.348Z,94.70
2022-08-30T19:41:11.753Z,94.80
2022-08-30T19:43:42.711Z,94.90
2022-08-30T19:46:14.042Z,94.10
2022-08-30T19:48:45.183Z,94.00
2022-08-30T19:51:16.862Z,94.00
2022-08-30T19:53:47.909Z,94.60
2022-08-30T19:56:22.116Z,94.60
2022-08-30T19:58:53.775Z,93.80
2022-08-30T20:01:33.324Z,94.70
2022-08-30T20:04:05.893Z,94.30
2022-08-30T20:06:39.009Z,94.00
2022-08-30T20:09:11.345Z,94.60
2022-08-30T20:11:49.264Z,94.30
2022-08-30T20:14:26.387Z,94.10
2022-08-30T20:16:58.028Z,94.30
2022-08-30T20:19:33.828Z,94.50
2022-08-30T20:22:08.236Z,94.30
2022-08-30T20:24:31.891Z,93.90
2022-08-30T20:24:43.678Z,94.50
2022-08-30T20:27:39.206Z,94.20
2022-08-30T20:30:11.851Z,94.70
2022-08-30T20:32:45.085Z,94.10
2022-08-30T20:35:17.078Z,95.00
2022-08-30T20:37:49.556Z,95.10
2022-08-30T20:40:20.867Z,93.80
2022-08-30T20:42:55.280Z,95.00
2022-08-30T20:45:26.258Z,95.60
2022-08-30T20:48:05.959Z,95.50
2022-08-30T20:50:36.860Z,95.60
2022-08-30T20:53:09.137Z,95.20
2022-08-30T20:55:43.318Z,95.60
2022-08-30T20:58:17.490Z,95.30
2022-08-30T21:00:52.190Z,94.90
2022-08-30T21:03:26.111Z,95.50
2022-08-30T21:05:58.692Z,95.50
2022-08-30T21:08:30.142Z,95.40
2022-08-30T21:11:00.992Z,95.60
2022-08-30T21:13:34.711Z,95.70
2022-08-30T21:16:05.924Z,95.70
2022-08-30T21:18:38.342Z,95.90
2022-08-30T21:21:13.048Z,95.90
2022-08-30T21:23:44.580Z,96.00
2022-08-30T21:26:15.524Z,95.40
2022-08-30T21:28:49.348Z,95.80
2022-08-30T21:31:21.697Z,96.20
2022-08-30T21:33:54.190Z,96.00
2022-08-30T21:36:38.081Z,96.20
2022-08-30T21:39:09.872Z,96.10
2022-08-30T21:41:41.242Z,95.90
2022-08-30T21:44:16.699Z,95.80
2022-08-30T21:46:49.105Z,95.30
2022-08-30T21:49:21.512Z,94.80
2022-08-30T21:51:53.725Z,96.40
2022-08-30T21:54:31.264Z,96.40
2022-08-30T21:57:05.073Z,96.40
2022-08-30T21:59:38.805Z,96.20
2022-08-30T22:02:09.722Z,96.40
2022-08-30T22:04:42.623Z,96.50
2022-08-30T22:07:13.421Z,96.30
2022-08-30T22:09:45.377Z,96.40
2022-08-30T22:12:16.506Z,96.30
2022-08-30T22:14:50.234Z,96.10
2022-08-30T22:17:21.486Z,95.90
2022-08-30T22:19:52.827Z,96.50
2022-08-30T22:22:23.805Z,96.20
2022-08-30T22:24:54.965Z,96.60
2022-08-30T22:27:25.785Z,96.30
2022-08-30T22:29:59.507Z,96.20
2022-08-30T22:32:30.463Z,96.20
2022-08-30T22:35:01.642Z,96.60
2022-08-30T22:37:32.483Z,96.30
2022-08-30T22:40:03.567Z,96.70
2022-08-30T22:42:34.481Z,96.60
2022-08-30T22:45:09.053Z,96.70
2022-08-30T22:47:41.091Z,96.80
2022-08-30T22:50:13.309Z,96.50
2022-08-30T22:52:44.250Z,96.40
2022-08-30T22:55:15.300Z,97.00
2022-08-30T22:57:46.124Z,97.00
2022-08-30T23:00:20.483Z,97.00
2022-08-30T23:02:52.939Z,97.00
2022-08-30T23:05:25.091Z,96.80
2022-08-30T23:07:55.818Z,96.90
2022-08-30T23:10:28.347Z,96.60
2022-08-30T23:12:59.545Z,96.80
2022-08-30T23:15:33.318Z,97.10
2022-08-30T23:18:04.194Z,96.70
2022-08-30T23:20:35.744Z,96.90
2022-08-30T23:23:03.733Z,97.00
2022-08-30T23:25:47.806Z,97.00
2022-08-30T23:28:36.181Z,96.80
2022-08-30T23:31:28.912Z,97.00
2022-08-30T23:34:12.404Z,97.30
2022-08-30T23:36:55.576Z,97.20
2022-08-30T23:39:39.176Z,97.40
2022-08-30T23:42:22.497Z,97.30
2022-08-30T23:45:06.137Z,97.30
2022-08-30T23:47:51.954Z,97.00
2022-08-30T23:50:35.532Z,97.10
2022-08-30T23:53:19.135Z,97.00
2022-08-30T23:56:02.867Z,97.00
2022-08-30T23:58:46.055Z,97.30
